sensor_id;sensor_type;location;lat;lon;timestamp;temperature;humidity
4520;DHT22;2272;49.226;8.108;2022-10-17T00:00:57;13.20;99.90
4520;DHT22;2272;49.226;8.108;2022-10-17T00:03:23;13.20;99.90
4520;DHT22;2272;49.226;8.108;2022-10-17T00:05:50;13.20;99.90
4520;DHT22;2272;49.226;8.108;2022-10-17T00:08:18;13.20;99.90
4520;DHT22;2272;49.226;8.108;2022-10-17T00:10:54;13.20;99.90
4520;DHT22;2272;49.226;8.108;2022-10-17T00:13:21;13.20;99.90
4520;DHT22;2272;49.226;8.108;2022-10-17T00:15:48;13.20;99.90
4520;DHT22;2272;49.226;8.108;2022-10-17T00:18:15;13.30;99.90
4520;DHT22;2272;49.226;8.108;2022-10-17T00:20:41;13.20;99.90
4520;DHT22;2272;49.226;8.108;2022-10-17T00:23:08;13.10;99.90
4520;DHT22;2272;49.226;8.108;2022-10-17T00:25:36;13.10;99.90
4520;DHT22;2272;49.226;8.108;2022-10-17T00:28:03;13.10;99.90
4520;DHT22;2272;49.226;8.108;2022-10-17T00:30:30;13.10;99.90
4520;DHT22;2272;49.226;8.108;2022-10-17T00:32:57;13.10;99.90
4520;DHT22;2272;49.226;8.108;2022-10-17T00:35:24;13.10;99.90
4520;DHT22;2272;49.226;8.108;2022-10-17T00:37:50;13.10;99.90
4520;DHT22;2272;49.226;8.108;2022-10-17T00:40:17;13.10;99.90
4520;DHT22;2272;49.226;8.108;2022-10-17T00:42:46;13.10;99.90
4520;DHT22;2272;49.226;8.108;2022-10-17T00:45:17;13.00;99.90
4520;DHT22;2272;49.226;8.108;2022-10-17T00:47:47;13.00;99.90
4520;DHT22;2272;49.226;8.108;2022-10-17T00:50:17;13.00;99.90
4520;DHT22;2272;49.226;8.108;2022-10-17T00:52:46;12.90;99.90
4520;DHT22;2272;49.226;8.108;2022-10-17T00:55:17;12.90;99.90
4520;DHT22;2272;49.226;8.108;2022-10-17T00:57:47;12.80;99.90
4520;DHT22;2272;49.226;8.108;2022-10-17T01:00:14;12.70;99.90
4520;DHT22;2272;49.226;8.108;2022-10-17T01:02:42;12.70;99.90
4520;DHT22;2272;49.226;8.108;2022-10-17T01:05:09;12.70;99.90
4520;DHT22;2272;49.226;8.108;2022-10-17T01:07:38;12.60;99.90
4520;DHT22;2272;49.226;8.108;2022-10-17T01:10:06;12.50;99.90
4520;DHT22;2272;49.226;8.108;2022-10-17T01:12:40;12.50;99.90
4520;DHT22;2272;49.226;8.108;2022-10-17T01:15:18;12.50;99.90
4520;DHT22;2272;49.226;8.108;2022-10-17T01:17:55;12.60;99.90
4520;DHT22;2272;49.226;8.108;2022-10-17T01:26:26;12.50;99.90
4520;DHT22;2272;49.226;8.108;2022-10-17T01:29:13;12.60;99.90
4520;DHT22;2272;49.226;8.108;2022-10-17T01:31:46;12.50;99.90
4520;DHT22;2272;49.226;8.108;2022-10-17T01:34:15;12.60;99.90
4520;DHT22;2272;49.226;8.108;2022-10-17T01:36:48;12.60;99.90
4520;DHT22;2272;49.226;8.108;2022-10-17T01:39:21;12.60;99.90
4520;DHT22;2272;49.226;8.108;2022-10-17T01:41:54;12.60;99.90
4520;DHT22;2272;49.226;8.108;2022-10-17T01:44:26;12.60;99.90
4520;DHT22;2272;49.226;8.108;2022-10-17T01:47:00;12.60;99.90
4520;DHT22;2272;49.226;8.108;2022-10-17T01:49:30;12.60;99.90
4520;DHT22;2272;49.226;8.108;2022-10-17T01:52:02;12.50;99.90
4520;DHT22;2272;49.226;8.108;2022-10-17T01:54:31;12.40;99.90
4520;DHT22;2272;49.226;8.108;2022-10-17T01:57:01;12.40;99.90
4520;DHT22;2272;49.226;8.108;2022-10-17T01:59:37;12.30;99.90
4520;DHT22;2272;49.226;8.108;2022-10-17T02:02:07;12.30;99.90
4520;DHT22;2272;49.226;8.108;2022-10-17T02:04:35;12.30;99.90
4520;DHT22;2272;49.226;8.108;2022-10-17T02:07:06;12.30;99.90
4520;DHT22;2272;49.226;8.108;2022-10-17T02:09:33;12.30;99.90
4520;DHT22;2272;49.226;8.108;2022-10-17T02:12:15;12.40;99.90
4520;DHT22;2272;49.226;8.108;2022-10-17T02:14:55;12.40;99.90
4520;DHT22;2272;49.226;8.108;2022-10-17T02:17:35;12.40;99.90
4520;DHT22;2272;49.226;8.108;2022-10-17T02:20:11;12.40;99.90
4520;DHT22;2272;49.226;8.108;2022-10-17T02:22:44;12.40;99.90
4520;DHT22;2272;49.226;8.108;2022-10-17T02:25:17;12.40;99.90
4520;DHT22;2272;49.226;8.108;2022-10-17T02:27:51;12.40;99.90
4520;DHT22;2272;49.226;8.108;2022-10-17T02:30:24;12.50;99.90
4520;DHT22;2272;49.226;8.108;2022-10-17T02:32:58;12.50;99.90
4520;DHT22;2272;49.226;8.108;2022-10-17T02:35:29;12.40;99.90
4520;DHT22;2272;49.226;8.108;2022-10-17T02:37:58;12.50;99.90
4520;DHT22;2272;49.226;8.108;2022-10-17T02:40:25;12.50;99.90
4520;DHT22;2272;49.226;8.108;2022-10-17T02:42:54;12.50;99.90
4520;DHT22;2272;49.226;8.108;2022-10-17T02:45:22;12.50;99.90
4520;DHT22;2272;49.226;8.108;2022-10-17T02:47:57;12.50;99.90
4520;DHT22;2272;49.226;8.108;2022-10-17T02:50:27;12.50;99.90
4520;DHT22;2272;49.226;8.108;2022-10-17T02:53:03;12.50;99.90
4520;DHT22;2272;49.226;8.108;2022-10-17T02:55:33;12.50;99.90
4520;DHT22;2272;49.226;8.108;2022-10-17T02:58:03;12.50;99.90
4520;DHT22;2272;49.226;8.108;2022-10-17T03:00:32;12.50;99.90
4520;DHT22;2272;49.226;8.108;2022-10-17T03:03:01;12.50;99.90
4520;DHT22;2272;49.226;8.108;2022-10-17T03:05:43;12.50;99.90
4520;DHT22;2272;49.226;8.108;2022-10-17T03:08:10;12.50;99.90
4520;DHT22;2272;49.226;8.108;2022-10-17T03:10:37;12.60;99.90
4520;DHT22;2272;49.226;8.108;2022-10-17T03:13:03;12.60;99.90
4520;DHT22;2272;49.226;8.108;2022-10-17T03:15:30;12.60;99.90
4520;DHT22;2272;49.226;8.108;2022-10-17T03:17:57;12.60;99.90
4520;DHT22;2272;49.226;8.108;2022-10-17T03:20:25;12.60;99.90
4520;DHT22;2272;49.226;8.108;2022-10-17T03:22:52;12.60;99.90
4520;DHT22;2272;49.226;8.108;2022-10-17T03:25:18;12.60;99.90
4520;DHT22;2272;49.226;8.108;2022-10-17T03:27:45;12.60;99.90
4520;DHT22;2272;49.226;8.108;2022-10-17T03:30:12;12.60;99.90
4520;DHT22;2272;49.226;8.108;2022-10-17T03:32:39;12.60;99.90
4520;DHT22;2272;49.226;8.108;2022-10-17T03:35:06;12.50;99.90
4520;DHT22;2272;49.226;8.108;2022-10-17T03:37:34;12.50;99.90
4520;DHT22;2272;49.226;8.108;2022-10-17T03:40:01;12.40;99.90
4520;DHT22;2272;49.226;8.108;2022-10-17T03:42:28;12.40;99.90
4520;DHT22;2272;49.226;8.108;2022-10-17T03:44:55;12.30;99.90
4520;DHT22;2272;49.226;8.108;2022-10-17T03:47:21;12.30;99.90
4520;DHT22;2272;49.226;8.108;2022-10-17T03:49:48;12.20;99.90
4520;DHT22;2272;49.226;8.108;2022-10-17T03:52:18;12.20;99.90
4520;DHT22;2272;49.226;8.108;2022-10-17T03:54:46;12.20;99.90
4520;DHT22;2272;49.226;8.108;2022-10-17T03:57:12;12.20;99.90
4520;DHT22;2272;49.226;8.108;2022-10-17T03:59:39;12.20;99.90
4520;DHT22;2272;49.226;8.108;2022-10-17T04:02:06;12.30;99.90
4520;DHT22;2272;49.226;8.108;2022-10-17T04:04:32;12.20;99.90
4520;DHT22;2272;49.226;8.108;2022-10-17T04:06:59;12.30;99.90
4520;DHT22;2272;49.226;8.108;2022-10-17T04:09:26;12.20;99.90
4520;DHT22;2272;49.226;8.108;2022-10-17T04:11:54;12.10;99.90
4520;DHT22;2272;49.226;8.108;2022-10-17T04:14:21;12.10;99.90
4520;DHT22;2272;49.226;8.108;2022-10-17T04:16:47;12.20;99.90
4520;DHT22;2272;49.226;8.108;2022-10-17T04:19:14;12.10;99.90
4520;DHT22;2272;49.226;8.108;2022-10-17T04:21:41;12.20;99.90
4520;DHT22;2272;49.226;8.108;2022-10-17T04:24:10;12.20;99.90
4520;DHT22;2272;49.226;8.108;2022-10-17T04:26:37;12.20;99.90
4520;DHT22;2272;49.226;8.108;2022-10-17T04:29:05;12.10;99.90
4520;DHT22;2272;49.226;8.108;2022-10-17T04:31:31;12.10;99.90
4520;DHT22;2272;49.226;8.108;2022-10-17T04:33:58;12.00;99.90
4520;DHT22;2272;49.226;8.108;2022-10-17T04:36:25;12.00;99.90
4520;DHT22;2272;49.226;8.108;2022-10-17T04:38:51;11.90;99.90
4520;DHT22;2272;49.226;8.108;2022-10-17T04:41:19;11.90;99.90
4520;DHT22;2272;49.226;8.108;2022-10-17T04:43:45;11.80;99.90
4520;DHT22;2272;49.226;8.108;2022-10-17T04:46:14;11.80;99.90
4520;DHT22;2272;49.226;8.108;2022-10-17T04:48:41;11.80;99.90
4520;DHT22;2272;49.226;8.108;2022-10-17T04:51:10;11.80;99.90
4520;DHT22;2272;49.226;8.108;2022-10-17T04:53:41;11.80;99.90
4520;DHT22;2272;49.226;8.108;2022-10-17T04:56:10;11.80;99.90
4520;DHT22;2272;49.226;8.108;2022-10-17T04:58:37;11.70;99.90
4520;DHT22;2272;49.226;8.108;2022-10-17T05:01:05;11.70;99.90
4520;DHT22;2272;49.226;8.108;2022-10-17T05:03:34;11.70;99.90
4520;DHT22;2272;49.226;8.108;2022-10-17T05:06:05;11.70;99.90
4520;DHT22;2272;49.226;8.108;2022-10-17T05:08:32;11.70;99.90
4520;DHT22;2272;49.226;8.108;2022-10-17T05:10:59;11.60;99.90
4520;DHT22;2272;49.226;8.108;2022-10-17T05:13:26;11.70;99.90
4520;DHT22;2272;49.226;8.108;2022-10-17T05:15:56;11.60;99.90
4520;DHT22;2272;49.226;8.108;2022-10-17T05:18:23;11.60;99.90
4520;DHT22;2272;49.226;8.108;2022-10-17T05:20:51;11.60;99.90
4520;DHT22;2272;49.226;8.108;2022-10-17T05:23:18;11.60;99.90
4520;DHT22;2272;49.226;8.108;2022-10-17T05:25:45;11.60;99.90
4520;DHT22;2272;49.226;8.108;2022-10-17T05:28:11;11.60;99.90
4520;DHT22;2272;49.226;8.108;2022-10-17T05:30:38;11.60;99.90
4520;DHT22;2272;49.226;8.108;2022-10-17T05:33:05;11.70;99.90
4520;DHT22;2272;49.226;8.108;2022-10-17T05:35:32;11.70;99.90
4520;DHT22;2272;49.226;8.108;2022-10-17T05:38:00;11.70;99.90
4520;DHT22;2272;49.226;8.108;2022-10-17T05:40:26;11.60;99.90
4520;DHT22;2272;49.226;8.108;2022-10-17T05:42:53;11.70;99.90
4520;DHT22;2272;49.226;8.108;2022-10-17T05:45:20;11.60;99.90
4520;DHT22;2272;49.226;8.108;2022-10-17T05:47:47;11.60;99.90
4520;DHT22;2272;49.226;8.108;2022-10-17T05:50:13;11.60;99.90
4520;DHT22;2272;49.226;8.108;2022-10-17T05:52:40;11.50;99.90
4520;DHT22;2272;49.226;8.108;2022-10-17T05:55:09;11.40;99.90
4520;DHT22;2272;49.226;8.108;2022-10-17T05:57:36;11.30;99.90
4520;DHT22;2272;49.226;8.108;2022-10-17T06:00:04;11.30;99.90
4520;DHT22;2272;49.226;8.108;2022-10-17T06:02:31;11.30;99.90
4520;DHT22;2272;49.226;8.108;2022-10-17T06:04:57;11.30;99.90
4520;DHT22;2272;49.226;8.108;2022-10-17T06:07:24;11.30;99.90
4520;DHT22;2272;49.226;8.108;2022-10-17T06:09:51;11.40;99.90
4520;DHT22;2272;49.226;8.108;2022-10-17T06:12:19;11.40;99.90
4520;DHT22;2272;49.226;8.108;2022-10-17T06:14:46;11.40;99.90
4520;DHT22;2272;49.226;8.108;2022-10-17T06:17:12;11.40;99.90
4520;DHT22;2272;49.226;8.108;2022-10-17T06:19:40;11.50;99.90
4520;DHT22;2272;49.226;8.108;2022-10-17T06:22:06;11.50;99.90
4520;DHT22;2272;49.226;8.108;2022-10-17T06:24:33;11.50;99.90
4520;DHT22;2272;49.226;8.108;2022-10-17T06:27:00;11.60;99.90
4520;DHT22;2272;49.226;8.108;2022-10-17T06:29:28;11.70;99.90
4520;DHT22;2272;49.226;8.108;2022-10-17T06:31:55;11.80;99.90
4520;DHT22;2272;49.226;8.108;2022-10-17T06:34:22;11.80;99.90
4520;DHT22;2272;49.226;8.108;2022-10-17T06:36:49;11.90;99.90
4520;DHT22;2272;49.226;8.108;2022-10-17T06:39:16;12.00;99.90
4520;DHT22;2272;49.226;8.108;2022-10-17T06:41:42;12.10;99.90
4520;DHT22;2272;49.226;8.108;2022-10-17T06:44:10;12.10;99.90
4520;DHT22;2272;49.226;8.108;2022-10-17T06:46:38;12.20;99.90
4520;DHT22;2272;49.226;8.108;2022-10-17T06:49:06;12.20;99.90
4520;DHT22;2272;49.226;8.108;2022-10-17T06:51:34;12.30;99.90
4520;DHT22;2272;49.226;8.108;2022-10-17T06:54:01;12.40;99.90
4520;DHT22;2272;49.226;8.108;2022-10-17T06:56:28;12.40;99.90
4520;DHT22;2272;49.226;8.108;2022-10-17T06:58:55;12.50;99.90
4520;DHT22;2272;49.226;8.108;2022-10-17T07:01:21;12.50;99.90
4520;DHT22;2272;49.226;8.108;2022-10-17T07:03:49;12.60;99.90
4520;DHT22;2272;49.226;8.108;2022-10-17T07:06:16;12.70;99.90
4520;DHT22;2272;49.226;8.108;2022-10-17T07:08:44;12.80;99.90
4520;DHT22;2272;49.226;8.108;2022-10-17T07:11:11;12.90;99.90
4520;DHT22;2272;49.226;8.108;2022-10-17T07:13:39;13.00;99.90
4520;DHT22;2272;49.226;8.108;2022-10-17T07:16:06;13.10;99.90
4520;DHT22;2272;49.226;8.108;2022-10-17T07:18:33;13.20;99.90
4520;DHT22;2272;49.226;8.108;2022-10-17T07:21:02;13.30;99.90
4520;DHT22;2272;49.226;8.108;2022-10-17T07:23:29;13.40;99.90
4520;DHT22;2272;49.226;8.108;2022-10-17T07:25:59;13.50;99.90
4520;DHT22;2272;49.226;8.108;2022-10-17T07:28:26;13.60;99.90
4520;DHT22;2272;49.226;8.108;2022-10-17T07:30:53;13.70;99.90
4520;DHT22;2272;49.226;8.108;2022-10-17T07:33:19;13.90;99.90
4520;DHT22;2272;49.226;8.108;2022-10-17T07:35:46;14.00;99.90
4520;DHT22;2272;49.226;8.108;2022-10-17T07:38:14;14.20;99.90
4520;DHT22;2272;49.226;8.108;2022-10-17T07:40:41;14.20;99.90
4520;DHT22;2272;49.226;8.108;2022-10-17T07:43:08;14.20;99.90
4520;DHT22;2272;49.226;8.108;2022-10-17T07:45:35;14.30;99.90
4520;DHT22;2272;49.226;8.108;2022-10-17T07:48:01;14.40;99.90
4520;DHT22;2272;49.226;8.108;2022-10-17T07:50:28;14.40;99.90
4520;DHT22;2272;49.226;8.108;2022-10-17T07:52:56;14.50;99.90
4520;DHT22;2272;49.226;8.108;2022-10-17T07:55:24;14.50;99.90
4520;DHT22;2272;49.226;8.108;2022-10-17T07:57:51;14.50;99.90
4520;DHT22;2272;49.226;8.108;2022-10-17T08:00:17;14.60;99.90
4520;DHT22;2272;49.226;8.108;2022-10-17T08:02:44;14.70;99.90
4520;DHT22;2272;49.226;8.108;2022-10-17T08:05:11;14.80;99.90
4520;DHT22;2272;49.226;8.108;2022-10-17T08:07:38;15.00;99.90
4520;DHT22;2272;49.226;8.108;2022-10-17T08:10:06;15.20;99.90
4520;DHT22;2272;49.226;8.108;2022-10-17T08:12:35;15.30;99.90
4520;DHT22;2272;49.226;8.108;2022-10-17T08:15:01;15.40;99.90
4520;DHT22;2272;49.226;8.108;2022-10-17T08:17:28;15.60;99.90
4520;DHT22;2272;49.226;8.108;2022-10-17T08:19:55;15.80;99.90
4520;DHT22;2272;49.226;8.108;2022-10-17T08:22:22;15.90;99.90
4520;DHT22;2272;49.226;8.108;2022-10-17T08:24:48;16.00;99.90
4520;DHT22;2272;49.226;8.108;2022-10-17T08:27:15;16.20;99.90
4520;DHT22;2272;49.226;8.108;2022-10-17T08:29:50;16.40;99.90
4520;DHT22;2272;49.226;8.108;2022-10-17T08:32:18;16.60;99.90
4520;DHT22;2272;49.226;8.108;2022-10-17T08:34:46;16.70;99.90
4520;DHT22;2272;49.226;8.108;2022-10-17T08:37:12;16.90;99.90
4520;DHT22;2272;49.226;8.108;2022-10-17T08:39:40;17.00;99.90
4520;DHT22;2272;49.226;8.108;2022-10-17T08:42:29;17.10;99.90
4520;DHT22;2272;49.226;8.108;2022-10-17T08:45:08;17.20;99.90
4520;DHT22;2272;49.226;8.108;2022-10-17T08:47:40;17.40;99.90
4520;DHT22;2272;49.226;8.108;2022-10-17T08:50:11;17.50;99.90
4520;DHT22;2272;49.226;8.108;2022-10-17T08:52:42;17.80;99.90
4520;DHT22;2272;49.226;8.108;2022-10-17T08:55:15;18.00;99.90
4520;DHT22;2272;49.226;8.108;2022-10-17T08:57:42;18.10;99.90
4520;DHT22;2272;49.226;8.108;2022-10-17T09:00:16;18.20;99.90
4520;DHT22;2272;49.226;8.108;2022-10-17T09:02:53;18.30;99.90
4520;DHT22;2272;49.226;8.108;2022-10-17T09:05:28;18.40;99.90
4520;DHT22;2272;49.226;8.108;2022-10-17T09:08:04;18.60;99.90
4520;DHT22;2272;49.226;8.108;2022-10-17T09:10:38;18.70;99.90
4520;DHT22;2272;49.226;8.108;2022-10-17T09:13:16;18.90;99.90
4520;DHT22;2272;49.226;8.108;2022-10-17T09:15:55;19.10;99.90
4520;DHT22;2272;49.226;8.108;2022-10-17T09:18:28;19.30;99.90
4520;DHT22;2272;49.226;8.108;2022-10-17T09:21:00;19.30;99.90
4520;DHT22;2272;49.226;8.108;2022-10-17T09:23:30;19.30;99.90
4520;DHT22;2272;49.226;8.108;2022-10-17T09:25:59;19.40;99.90
4520;DHT22;2272;49.226;8.108;2022-10-17T09:28:29;19.50;99.90
4520;DHT22;2272;49.226;8.108;2022-10-17T09:31:00;19.70;99.90
4520;DHT22;2272;49.226;8.108;2022-10-17T09:33:30;19.90;99.90
4520;DHT22;2272;49.226;8.108;2022-10-17T09:35:59;20.10;99.90
4520;DHT22;2272;49.226;8.108;2022-10-17T09:38:35;20.20;99.90
4520;DHT22;2272;49.226;8.108;2022-10-17T09:41:03;20.40;99.90
4520;DHT22;2272;49.226;8.108;2022-10-17T09:43:32;20.50;99.90
4520;DHT22;2272;49.226;8.108;2022-10-17T09:46:06;20.60;99.90
4520;DHT22;2272;49.226;8.108;2022-10-17T09:48:37;20.80;99.90
4520;DHT22;2272;49.226;8.108;2022-10-17T09:51:05;20.80;99.90
4520;DHT22;2272;49.226;8.108;2022-10-17T09:53:35;20.90;99.90
4520;DHT22;2272;49.226;8.108;2022-10-17T09:56:06;20.90;99.90
4520;DHT22;2272;49.226;8.108;2022-10-17T09:58:41;20.90;99.90
4520;DHT22;2272;49.226;8.108;2022-10-17T10:01:18;21.10;99.90
4520;DHT22;2272;49.226;8.108;2022-10-17T10:03:46;21.20;99.90
4520;DHT22;2272;49.226;8.108;2022-10-17T10:06:14;21.30;99.90
4520;DHT22;2272;49.226;8.108;2022-10-17T10:08:50;21.40;99.90
4520;DHT22;2272;49.226;8.108;2022-10-17T10:11:18;21.50;99.90
4520;DHT22;2272;49.226;8.108;2022-10-17T10:13:48;21.50;99.90
4520;DHT22;2272;49.226;8.108;2022-10-17T10:16:21;21.60;99.90
4520;DHT22;2272;49.226;8.108;2022-10-17T10:18:50;21.70;99.90
4520;DHT22;2272;49.226;8.108;2022-10-17T10:21:19;21.80;99.90
4520;DHT22;2272;49.226;8.108;2022-10-17T10:24:03;21.90;99.90
4520;DHT22;2272;49.226;8.108;2022-10-17T10:26:34;22.00;99.90
4520;DHT22;2272;49.226;8.108;2022-10-17T10:29:04;22.00;99.90
4520;DHT22;2272;49.226;8.108;2022-10-17T10:31:35;22.00;99.90
4520;DHT22;2272;49.226;8.108;2022-10-17T10:34:15;22.00;99.90
4520;DHT22;2272;49.226;8.108;2022-10-17T10:36:57;21.80;99.90
4520;DHT22;2272;49.226;8.108;2022-10-17T10:39:38;21.70;99.90
4520;DHT22;2272;49.226;8.108;2022-10-17T10:42:15;21.50;99.90
4520;DHT22;2272;49.226;8.108;2022-10-17T10:44:43;21.30;99.90
4520;DHT22;2272;49.226;8.108;2022-10-17T10:47:19;21.20;99.90
4520;DHT22;2272;49.226;8.108;2022-10-17T10:49:46;21.30;99.90
4520;DHT22;2272;49.226;8.108;2022-10-17T10:52:27;21.40;99.90
4520;DHT22;2272;49.226;8.108;2022-10-17T10:55:01;21.60;99.90
4520;DHT22;2272;49.226;8.108;2022-10-17T10:57:32;21.80;99.90
4520;DHT22;2272;49.226;8.108;2022-10-17T11:00:07;21.90;99.90
4520;DHT22;2272;49.226;8.108;2022-10-17T11:02:44;22.10;99.90
4520;DHT22;2272;49.226;8.108;2022-10-17T11:05:16;22.40;99.90
4520;DHT22;2272;49.226;8.108;2022-10-17T11:07:50;22.50;99.90
4520;DHT22;2272;49.226;8.108;2022-10-17T11:10:23;22.60;99.90
4520;DHT22;2272;49.226;8.108;2022-10-17T11:12:56;22.70;99.90
4520;DHT22;2272;49.226;8.108;2022-10-17T11:15:28;22.80;99.90
4520;DHT22;2272;49.226;8.108;2022-10-17T11:17:59;22.90;99.90
4520;DHT22;2272;49.226;8.108;2022-10-17T11:20:33;23.00;99.90
4520;DHT22;2272;49.226;8.108;2022-10-17T11:23:13;23.20;99.90
4520;DHT22;2272;49.226;8.108;2022-10-17T11:25:45;23.20;99.90
4520;DHT22;2272;49.226;8.108;2022-10-17T11:28:14;23.30;99.90
4520;DHT22;2272;49.226;8.108;2022-10-17T11:30:46;23.30;99.90
4520;DHT22;2272;49.226;8.108;2022-10-17T11:33:19;23.30;99.90
4520;DHT22;2272;49.226;8.108;2022-10-17T11:35:51;23.40;99.90
4520;DHT22;2272;49.226;8.108;2022-10-17T11:38:24;23.40;99.90
4520;DHT22;2272;49.226;8.108;2022-10-17T11:40:55;23.30;99.90
4520;DHT22;2272;49.226;8.108;2022-10-17T11:43:27;23.30;99.90
4520;DHT22;2272;49.226;8.108;2022-10-17T11:46:00;23.30;99.90
4520;DHT22;2272;49.226;8.108;2022-10-17T11:48:33;23.30;99.90
4520;DHT22;2272;49.226;8.108;2022-10-17T11:51:06;23.30;99.90
4520;DHT22;2272;49.226;8.108;2022-10-17T11:53:44;23.20;99.90
4520;DHT22;2272;49.226;8.108;2022-10-17T11:56:16;23.20;99.90
4520;DHT22;2272;49.226;8.108;2022-10-17T11:58:49;23.20;99.90
4520;DHT22;2272;49.226;8.108;2022-10-17T12:01:26;23.30;99.90
4520;DHT22;2272;49.226;8.108;2022-10-17T12:04:11;23.40;99.90
4520;DHT22;2272;49.226;8.108;2022-10-17T12:07:01;23.60;99.90
4520;DHT22;2272;49.226;8.108;2022-10-17T12:09:38;23.70;99.90
4520;DHT22;2272;49.226;8.108;2022-10-17T12:12:07;23.80;99.90
4520;DHT22;2272;49.226;8.108;2022-10-17T12:14:37;23.80;99.90
4520;DHT22;2272;49.226;8.108;2022-10-17T12:17:05;23.90;99.90
4520;DHT22;2272;49.226;8.108;2022-10-17T12:19:48;24.00;99.90
4520;DHT22;2272;49.226;8.108;2022-10-17T12:22:20;24.10;99.90
4520;DHT22;2272;49.226;8.108;2022-10-17T12:24:58;24.20;99.90
4520;DHT22;2272;49.226;8.108;2022-10-17T12:27:35;24.20;99.90
4520;DHT22;2272;49.226;8.108;2022-10-17T12:30:05;24.20;99.90
4520;DHT22;2272;49.226;8.108;2022-10-17T12:32:32;24.20;99.90
4520;DHT22;2272;49.226;8.108;2022-10-17T12:35:01;24.30;99.90
4520;DHT22;2272;49.226;8.108;2022-10-17T12:38:00;24.30;99.90
4520;DHT22;2272;49.226;8.108;2022-10-17T12:40:48;24.30;99.90
4520;DHT22;2272;49.226;8.108;2022-10-17T12:43:44;24.40;99.90
4520;DHT22;2272;49.226;8.108;2022-10-17T12:46:12;24.40;99.90
4520;DHT22;2272;49.226;8.108;2022-10-17T12:49:01;24.40;99.90
4520;DHT22;2272;49.226;8.108;2022-10-17T12:52:12;24.50;99.90
4520;DHT22;2272;49.226;8.108;2022-10-17T12:54:42;24.60;99.90
4520;DHT22;2272;49.226;8.108;2022-10-17T12:57:16;24.50;99.90
4520;DHT22;2272;49.226;8.108;2022-10-17T12:59:45;24.50;99.90
4520;DHT22;2272;49.226;8.108;2022-10-17T13:02:17;24.40;99.90
4520;DHT22;2272;49.226;8.108;2022-10-17T13:04:46;24.30;99.90
4520;DHT22;2272;49.226;8.108;2022-10-17T13:07:18;24.20;99.90
4520;DHT22;2272;49.226;8.108;2022-10-17T13:09:47;24.30;99.90
4520;DHT22;2272;49.226;8.108;2022-10-17T13:12:18;24.30;99.90
4520;DHT22;2272;49.226;8.108;2022-10-17T13:14:46;24.40;99.90
4520;DHT22;2272;49.226;8.108;2022-10-17T13:17:23;24.30;99.90
4520;DHT22;2272;49.226;8.108;2022-10-17T13:19:51;24.30;99.90
4520;DHT22;2272;49.226;8.108;2022-10-17T13:22:21;24.40;99.90
4520;DHT22;2272;49.226;8.108;2022-10-17T13:24:49;24.40;99.90
4520;DHT22;2272;49.226;8.108;2022-10-17T13:27:23;24.40;99.90
4520;DHT22;2272;49.226;8.108;2022-10-17T13:29:50;24.40;99.90
4520;DHT22;2272;49.226;8.108;2022-10-17T13:32:17;24.50;99.90
4520;DHT22;2272;49.226;8.108;2022-10-17T13:34:43;24.50;99.90
4520;DHT22;2272;49.226;8.108;2022-10-17T13:37:14;24.40;99.90
4520;DHT22;2272;49.226;8.108;2022-10-17T13:39:44;24.50;99.90
4520;DHT22;2272;49.226;8.108;2022-10-17T13:42:18;24.60;99.90
4520;DHT22;2272;49.226;8.108;2022-10-17T13:44:47;24.70;99.90
4520;DHT22;2272;49.226;8.108;2022-10-17T13:47:21;24.80;99.90
4520;DHT22;2272;49.226;8.108;2022-10-17T13:49:49;24.90;99.90
4520;DHT22;2272;49.226;8.108;2022-10-17T13:52:18;24.70;99.90
4520;DHT22;2272;49.226;8.108;2022-10-17T13:54:47;24.70;99.90
4520;DHT22;2272;49.226;8.108;2022-10-17T13:57:17;24.50;99.90
4520;DHT22;2272;49.226;8.108;2022-10-17T13:59:47;24.40;99.90
4520;DHT22;2272;49.226;8.108;2022-10-17T14:02:17;24.40;99.90
4520;DHT22;2272;49.226;8.108;2022-10-17T14:04:44;24.20;99.90
4520;DHT22;2272;49.226;8.108;2022-10-17T14:07:30;24.20;99.90
4520;DHT22;2272;49.226;8.108;2022-10-17T14:09:59;24.10;99.90
4520;DHT22;2272;49.226;8.108;2022-10-17T14:12:30;24.00;99.90
4520;DHT22;2272;49.226;8.108;2022-10-17T14:14:58;24.00;99.90
4520;DHT22;2272;49.226;8.108;2022-10-17T14:17:28;23.90;99.90
4520;DHT22;2272;49.226;8.108;2022-10-17T14:19:58;23.90;99.90
4520;DHT22;2272;49.226;8.108;2022-10-17T14:22:28;23.90;99.90
4520;DHT22;2272;49.226;8.108;2022-10-17T14:24:55;23.90;99.90
4520;DHT22;2272;49.226;8.108;2022-10-17T14:27:26;23.90;99.90
4520;DHT22;2272;49.226;8.108;2022-10-17T14:29:55;23.90;99.90
4520;DHT22;2272;49.226;8.108;2022-10-17T14:32:26;24.00;99.90
4520;DHT22;2272;49.226;8.108;2022-10-17T14:34:54;24.00;99.90
4520;DHT22;2272;49.226;8.108;2022-10-17T14:37:42;24.10;99.90
4520;DHT22;2272;49.226;8.108;2022-10-17T14:40:15;24.20;99.90
4520;DHT22;2272;49.226;8.108;2022-10-17T14:42:44;24.40;99.90
4520;DHT22;2272;49.226;8.108;2022-10-17T14:45:14;24.50;99.90
4520;DHT22;2272;49.226;8.108;2022-10-17T14:47:41;24.70;99.90
4520;DHT22;2272;49.226;8.108;2022-10-17T14:50:21;24.70;99.90
4520;DHT22;2272;49.226;8.108;2022-10-17T14:52:59;24.80;99.90
4520;DHT22;2272;49.226;8.108;2022-10-17T14:55:29;24.80;99.90
4520;DHT22;2272;49.226;8.108;2022-10-17T14:57:57;24.80;99.90
4520;DHT22;2272;49.226;8.108;2022-10-17T15:00:24;24.70;99.90
4520;DHT22;2272;49.226;8.108;2022-10-17T15:02:53;24.60;99.90
4520;DHT22;2272;49.226;8.108;2022-10-17T15:05:20;24.40;99.90
4520;DHT22;2272;49.226;8.108;2022-10-17T15:07:49;24.20;99.90
4520;DHT22;2272;49.226;8.108;2022-10-17T15:10:29;24.10;99.90
4520;DHT22;2272;49.226;8.108;2022-10-17T15:12:58;23.90;99.90
4520;DHT22;2272;49.226;8.108;2022-10-17T15:15:26;23.70;99.90
4520;DHT22;2272;49.226;8.108;2022-10-17T15:17:53;23.60;99.90
4520;DHT22;2272;49.226;8.108;2022-10-17T15:20:20;23.50;99.90
4520;DHT22;2272;49.226;8.108;2022-10-17T15:22:50;23.40;99.90
4520;DHT22;2272;49.226;8.108;2022-10-17T15:25:17;23.30;99.90
4520;DHT22;2272;49.226;8.108;2022-10-17T15:27:44;23.20;99.90
4520;DHT22;2272;49.226;8.108;2022-10-17T15:30:18;23.10;99.90
4520;DHT22;2272;49.226;8.108;2022-10-17T15:32:53;22.90;99.90
4520;DHT22;2272;49.226;8.108;2022-10-17T15:35:20;22.80;99.90
4520;DHT22;2272;49.226;8.108;2022-10-17T15:37:48;22.70;99.90
4520;DHT22;2272;49.226;8.108;2022-10-17T15:40:17;22.60;99.90
4520;DHT22;2272;49.226;8.108;2022-10-17T15:42:44;22.40;99.90
4520;DHT22;2272;49.226;8.108;2022-10-17T15:45:14;22.30;99.90
4520;DHT22;2272;49.226;8.108;2022-10-17T15:47:48;22.20;99.90
4520;DHT22;2272;49.226;8.108;2022-10-17T15:50:16;22.10;99.90
4520;DHT22;2272;49.226;8.108;2022-10-17T15:52:44;21.90;99.90
4520;DHT22;2272;49.226;8.108;2022-10-17T15:55:16;21.70;99.90
4520;DHT22;2272;49.226;8.108;2022-10-17T15:57:45;21.50;99.90
4520;DHT22;2272;49.226;8.108;2022-10-17T16:00:15;21.40;99.90
4520;DHT22;2272;49.226;8.108;2022-10-17T16:02:45;21.20;99.90
4520;DHT22;2272;49.226;8.108;2022-10-17T16:05:14;21.10;99.90
4520;DHT22;2272;49.226;8.108;2022-10-17T16:07:44;20.90;99.90
4520;DHT22;2272;49.226;8.108;2022-10-17T16:10:11;20.80;99.90
4520;DHT22;2272;49.226;8.108;2022-10-17T16:12:38;20.70;99.90
4520;DHT22;2272;49.226;8.108;2022-10-17T16:15:06;20.50;99.90
4520;DHT22;2272;49.226;8.108;2022-10-17T16:17:33;20.40;99.90
4520;DHT22;2272;49.226;8.108;2022-10-17T16:20:02;20.40;99.90
4520;DHT22;2272;49.226;8.108;2022-10-17T16:22:30;20.20;99.90
4520;DHT22;2272;49.226;8.108;2022-10-17T16:25:00;20.10;99.90
4520;DHT22;2272;49.226;8.108;2022-10-17T16:27:34;20.00;99.90